Mc Clure, Pennsylvania
Current Conditions -  °F | °C
As of 6:53 PM on Monday 24 Nov 2014 (Local Time) from KUNV Reporting Station
Broken Clouds Broken Clouds  
Wind Chill: 64°   Ceiling: 9000
Heat Index: 64°   Visibility: 10mi
Dew Point: 41°   Wind: 14mph
Humidity: 42%   Direction: 230°SW
Pressure: 29.61"   Gusts: 25mph
Location:  40.7125°N, 77.3707°W
Report Text: KUNV 242353Z 23012G22KT 10SM BKN090 18/05 A2961
Loading
Personal Weather Stations






























Interactive Weather Map New forecast layout! Learn more

10-Day Weather Forecast

Advertisements
Track Severe Weather on mobile